Virginia Beach, VA (23465)

2:45 AM EDT on August 27, 2016 (GMT -0400)
Lake Christopher | | Change Station

Elev 45 ft 36.79 °N, 76.17 °W | Updated 38 seconds ago

Mostly Cloudy
Mostly Cloudy
78.1 °F
Feels Like 81 °F
N
0.0
Wind Variable Wind from SSE

Today
High -- | Low -- °F
--% Chance of Precip.
Yesterday
High -- | Low -- °F
Precip. -- in
Pressure 30.06 in
Visibility 10.0 miles
Clouds Mostly Cloudy 7000 ft
Mostly Cloudy 8000 ft
Heat Index 81 °F
Dew Point 76 °F
Humidity 93%
Rainfall 0.00 in
Snow Depth Not available.
6:32 AM 7:39 PM
Waning Crescent, 27% visible
METAR KORF 270551Z AUTO 21006KT 10SM BKN070 BKN080 27/24 A3007 RMK AO2 SLP180 T02670239 10300 20267 50003
Pressure 30.06 in
Visibility 10.0 miles
Clouds Mostly Cloudy 7000 ft
Mostly Cloudy 8000 ft
Heat Index 81 °F
Dew Point 76 °F
Humidity 93%
Rainfall 0.00 in
Snow Depth Not available.
6:32 AM 7:39 PM
Waning Crescent, 27% visible
METAR KORF 270551Z AUTO 21006KT 10SM BKN070 BKN080 27/24 A3007 RMK AO2 SLP180 T02670239 10300 20267 50003

10-Day Weather Forecast

Almanac

Astronomy

Aug. 27, 2016 Rise Set
Actual Time
Civil Twilight
Nautical Twilight
Astronomical Twilight
Moon
Length of Visible Light
Length of Day
Tomorrow will be .
, % of the Moon is Illuminated

Today's Extremes

State Highs State Lows

Community

WunderPhotos

Upload Photos

1,935,303 photos uploaded!

WunderBlog® & News

Nearby

Air Quality

  Air Quality AQ Index Pollutant
Not available.

Snow Depth

Station Depth Elevation

Earthquake Activity

City Distance Mag. Time & Date
Minimum magnitude displayed is 2.5.

Coastal Water Temperatures

Place Temperature

Stations

Nearby Weather Stations

Station Location Temp. Windchill Dew Point Humidity Wind Precip. Elev Updated Type
                   

Watches & Warnings

There are currently no watches in effect.